.
WxDataArchive / Data Records for 2015-06-08
2015-06-07 June 2015 2015-06-09

Data Records for Monday, 08 June 2015

Time	Temp	Chill	HIndex	Humid	Dewpt	 Wind 	HiWind	WindDir	Rain 	Barom
-----	----	-----	------	-----	-----	------	------	-------	-----	-----
00:00	66.3	66.3	66.3	94	64.5	1	4	270	0.01	29.720 
00:05	66.4	66.4	66.4	94	64.6	1	3	248	0.00	29.720 
00:10	66.3	66.3	66.3	94	64.5	1	5	248	0.01	29.720 
00:15	66.1	66.1	66.1	94	64.3	1	4	248	0.01	29.742 
00:20	66.1	66.1	66.1	94	64.3	1	3	248	0.00	29.742 
00:25	66.0	66.0	66.0	94	64.2	0	3	248	0.00	29.742 
00:30	66.0	66.0	66.0	94	64.2	1	4	248	0.00	29.745 
00:35	66.0	66.0	66.0	94	64.2	1	5	270	0.00	29.745 
00:40	66.1	66.1	66.1	94	64.3	1	6	270	0.00	29.745 
00:45	66.1	66.1	66.1	94	64.3	1	4	270	0.00	29.775 
00:50	66.3	66.3	66.3	93	64.2	1	7	225	0.00	29.775 
00:55	66.3	66.3	66.3	93	64.2	1	5	270	0.01	29.775 
01:00	66.3	66.3	66.3	93	64.2	0	4	270	0.00	29.762 
01:05	66.1	66.1	66.1	93	64.0	0	2	270	0.00	29.762 
01:10	66.1	66.1	66.1	93	64.0	1	2	270	0.00	29.762 
01:15	66.0	66.0	66.0	93	63.9	1	4	248	0.01	29.744 
01:20	66.0	66.0	66.0	93	63.9	2	6	90	0.01	29.744 
01:25	66.0	66.0	66.0	93	63.9	2	5	270	0.00	29.744 
01:30	66.0	66.0	66.0	93	63.9	1	6	270	0.01	29.732 
01:35	66.0	66.0	66.0	93	63.9	1	4	248	0.00	29.732 
01:40	65.8	65.8	65.8	93	63.7	2	5	270	0.01	29.732 
01:45	65.8	65.8	65.8	93	63.7	1	3	248	0.01	29.729 
01:50	65.8	65.8	65.8	92	63.4	1	4	248	0.01	29.729 
01:55	65.6	65.6	65.6	92	63.2	1	3	248	0.01	29.729 
02:00	65.6	65.6	65.6	92	63.2	1	3	248	0.01	29.702 
02:05	65.6	65.6	65.6	92	63.2	0	3	248	0.00	29.702 
02:10	65.6	65.6	65.6	92	63.2	0	3	270	0.00	29.702 
02:15	65.6	65.6	65.6	92	63.2	0	2	270	0.01	29.701 
02:20	65.6	65.6	65.6	92	63.2	0	1	270	0.01	29.701 
02:25	65.5	65.5	65.5	92	63.1	1	3	270	0.00	29.701 
02:30	65.5	65.5	65.5	92	63.1	1	5	270	0.01	29.688 
02:35	65.3	65.3	65.3	92	62.9	1	3	315	0.00	29.688 
02:40	65.3	65.3	65.3	92	62.9	1	4	248	0.01	29.688 
02:45	65.5	65.5	65.5	92	63.1	2	6	248	0.00	29.700 
02:50	65.6	65.6	65.6	92	63.2	1	4	270	0.00	29.700 
02:55	65.6	65.6	65.6	92	63.2	1	4	270	0.00	29.700 
03:00	65.6	65.6	65.6	92	63.2	1	4	270	0.00	29.686 
03:05	65.6	65.6	65.6	92	63.2	0	1	270	0.00	29.686 
03:10	65.6	65.6	65.6	92	63.2	0	2	270	0.01	29.686 
03:15	65.6	65.6	65.6	92	63.2	0	1	270	0.00	29.675 
03:20	65.6	65.6	65.6	92	63.2	0	1	270	0.00	29.675 
03:25	65.6	65.6	65.6	92	63.2	0	2	270	0.00	29.675 
03:30	65.6	65.6	65.6	91	62.9	0	2	270	0.00	29.650 
03:35	65.6	65.6	65.6	91	62.9	0	1	270	0.00	29.650 
03:40	65.6	65.6	65.6	91	62.9	0	2	270	0.00	29.650 
03:45	65.5	65.5	65.5	91	62.8	0	1	270	0.00	29.627 
03:50	65.5	65.5	65.5	91	62.8	0	1	270	0.00	29.627 
03:55	65.5	65.5	65.5	91	62.8	0	0	---	0.00	29.627 
04:00	65.5	65.5	65.5	91	62.8	0	0	---	0.00	29.641 
04:05	65.3	65.3	65.3	92	62.9	0	1	270	0.00	29.641 
04:10	65.3	65.3	65.3	92	62.9	0	1	270	0.00	29.641 
04:15	65.3	65.3	65.3	92	62.9	0	1	270	0.00	29.655 
04:20	65.3	65.3	65.3	92	62.9	0	2	270	0.00	29.655 
04:25	65.3	65.3	65.3	92	62.9	0	1	270	0.00	29.655 
04:30	65.3	65.3	65.3	92	62.9	0	1	270	0.00	29.665 
04:35	65.3	65.3	65.3	92	62.9	0	1	270	0.00	29.665 
04:40	65.3	65.3	65.3	92	62.9	0	1	270	0.00	29.665 
04:45	65.3	65.3	65.3	92	62.9	0	2	270	0.00	29.680 
04:50	65.3	65.3	65.3	92	62.9	0	2	270	0.00	29.680 
04:55	65.3	65.3	65.3	92	62.9	0	2	270	0.00	29.680 
05:00	65.3	65.3	65.3	92	62.9	0	1	270	0.00	29.685 
05:05	65.3	65.3	65.3	92	62.9	0	1	270	0.00	29.685 
05:10	65.3	65.3	65.3	92	62.9	0	1	270	0.00	29.685 
05:15	65.2	65.2	65.2	92	62.8	0	2	270	0.00	29.688 
05:20	65.2	65.2	65.2	92	62.8	0	1	270	0.00	29.688 
05:25	65.0	65.0	65.0	92	62.6	0	0	---	0.00	29.688 
05:30	65.0	65.0	65.0	92	62.6	0	1	270	0.00	29.685 
05:35	65.0	65.0	65.0	92	62.6	0	1	270	0.00	29.685 
05:40	64.8	64.8	64.8	92	62.4	0	2	270	0.00	29.685 
05:45	64.8	64.8	64.8	92	62.4	0	1	270	0.00	29.687 
05:50	64.7	64.7	64.7	92	62.3	0	1	270	0.00	29.687 
05:55	64.7	64.7	64.7	92	62.3	0	2	270	0.00	29.687 
06:00	64.5	64.5	64.5	92	62.1	0	0	---	0.00	29.684 
06:05	64.5	64.5	64.5	92	62.1	0	1	270	0.00	29.684 
06:10	64.5	64.5	64.5	93	62.4	0	2	270	0.00	29.684 
06:15	64.3	64.3	64.3	93	62.2	0	1	270	0.00	29.685 
06:20	64.3	64.3	64.3	93	62.2	0	1	270	0.00	29.685 
06:25	64.3	64.3	64.3	93	62.2	0	1	270	0.00	29.685 
06:30	64.3	64.3	64.3	93	62.2	0	1	270	0.00	29.685 
06:35	64.3	64.3	64.3	93	62.2	0	1	270	0.00	29.685 
06:40	64.3	64.3	64.3	93	62.2	0	1	270	0.00	29.685 
06:45	64.5	64.5	64.5	93	62.4	0	2	270	0.00	29.692 
06:50	64.5	64.5	64.5	93	62.4	0	2	270	0.00	29.692 
06:55	64.5	64.5	64.5	93	62.4	0	2	270	0.00	29.692 
07:00	64.5	64.5	64.5	93	62.4	0	2	270	0.00	29.696 
07:05	64.5	64.5	64.5	92	62.1	0	3	270	0.00	29.696 
07:10	64.7	64.7	64.7	92	62.3	0	1	270	0.00	29.696 
07:15	64.7	64.7	64.7	92	62.3	0	1	270	0.00	29.692 
07:20	64.8	64.8	64.8	92	62.4	1	3	270	0.00	29.692 
07:25	64.8	64.8	64.8	92	62.4	1	3	270	0.00	29.692 
07:30	65.0	65.0	65.0	92	62.6	1	3	270	0.00	29.696 
07:35	65.2	65.2	65.2	91	62.5	1	4	270	0.00	29.696 
07:40	65.2	65.2	65.2	91	62.5	1	5	270	0.00	29.696 
07:45	65.5	65.5	65.5	90	62.5	2	5	292	0.00	29.700 
07:50	65.6	65.6	65.6	90	62.6	1	5	292	0.00	29.700 
07:55	65.6	65.6	65.6	90	62.6	1	5	292	0.00	29.700 
08:00	65.8	65.8	65.8	89	62.5	1	4	292	0.00	29.703 
08:05	65.8	65.8	65.8	89	62.5	0	3	292	0.00	29.703 
08:10	65.8	65.8	65.8	89	62.5	1	4	292	0.00	29.703 
08:15	65.8	65.8	65.8	89	62.5	2	4	292	0.00	29.709 
08:20	65.8	65.8	65.8	89	62.5	2	4	292	0.00	29.709 
08:25	65.8	65.8	65.8	89	62.5	1	5	270	0.00	29.709 
08:30	65.8	65.8	65.8	89	62.5	2	5	270	0.00	29.719 
08:35	66.0	66.0	66.0	88	62.3	1	4	270	0.00	29.719 
08:40	66.0	66.0	66.0	89	62.7	1	3	270	0.00	29.719 
08:45	66.0	66.0	66.0	89	62.7	0	5	270	0.00	29.719 
08:50	66.0	66.0	66.0	89	62.7	1	4	315	0.00	29.719 
08:55	66.0	66.0	66.0	89	62.7	1	3	315	0.00	29.719 
09:00	66.0	66.0	66.0	89	62.7	1	2	315	0.00	29.715 
09:05	66.1	66.1	66.1	89	62.8	0	3	315	0.00	29.715 
09:10	66.1	66.1	66.1	89	62.8	0	3	315	0.02	29.715 
09:15	66.1	66.1	66.1	90	63.1	0	2	315	0.01	29.718 
09:20	66.1	66.1	66.1	90	63.1	0	2	315	0.00	29.718 
09:25	66.0	66.0	66.0	91	63.3	0	2	338	0.00	29.718 
09:30	66.0	66.0	66.0	91	63.3	0	1	338	0.02	29.718 
09:35	66.0	66.0	66.0	91	63.3	0	1	338	0.00	29.718 
09:40	66.0	66.0	66.0	92	63.6	0	1	338	0.01	29.718 
09:45	66.0	66.0	66.0	92	63.6	0	1	338	0.00	29.719 
09:50	66.0	66.0	66.0	92	63.6	0	1	338	0.00	29.719 
09:55	66.0	66.0	66.0	92	63.6	0	1	338	0.00	29.719 
10:00	65.8	65.8	65.8	92	63.4	0	2	338	0.00	29.722 
10:05	66.0	66.0	66.0	93	63.9	0	3	45	0.00	29.722 
10:10	65.8	65.8	65.8	93	63.7	0	2	45	0.00	29.722 
10:15	65.8	65.8	65.8	93	63.7	0	1	45	0.01	29.723 
10:20	65.8	65.8	65.8	93	63.7	0	1	45	0.00	29.723 
10:25	65.8	65.8	65.8	93	63.7	0	3	45	0.00	29.723 
10:30	66.0	66.0	66.0	93	63.9	0	1	315	0.01	29.721 
10:35	66.0	66.0	66.0	94	64.2	0	1	315	0.00	29.721 
10:40	66.0	66.0	66.0	94	64.2	0	1	315	0.00	29.721 
10:45	66.0	66.0	66.0	94	64.2	0	2	315	0.00	29.720 
10:50	66.1	66.1	66.1	94	64.3	0	2	315	0.00	29.720 
10:55	66.1	66.1	66.1	94	64.3	0	2	315	0.01	29.720 
11:00	66.1	66.1	66.1	94	64.3	1	3	270	0.00	29.717 
11:05	66.3	66.3	66.3	94	64.5	1	2	270	0.00	29.717 
11:10	66.3	66.3	66.3	94	64.5	0	3	270	0.00	29.717 
11:15	66.3	66.3	66.3	94	64.5	0	5	270	0.00	29.715 
11:20	66.4	66.4	66.4	94	64.6	1	3	270	0.00	29.715 
11:25	66.6	66.6	66.6	94	64.8	0	3	270	0.00	29.715 
11:30	66.6	66.6	66.6	94	64.8	0	3	270	0.00	29.711 
11:35	66.8	66.8	66.8	94	65.0	0	2	270	0.00	29.711 
11:40	66.8	66.8	66.8	94	65.0	0	3	270	0.00	29.711 
11:45	66.8	66.8	66.8	94	65.0	0	2	270	0.00	29.713 
11:50	66.8	66.8	66.8	94	65.0	0	3	270	0.00	29.713 
11:55	66.9	66.9	66.9	94	65.1	0	2	270	0.00	29.713 
12:00	66.9	66.9	66.9	95	65.4	0	1	270	0.00	29.710 
12:05	67.1	67.1	67.1	95	65.6	0	3	270	0.00	29.710 
12:10	67.1	67.1	67.1	95	65.6	1	3	270	0.00	29.710 
12:15	67.3	67.3	67.3	95	65.8	0	2	270	0.00	29.713 
12:20	67.3	67.3	67.3	94	65.5	1	3	270	0.00	29.713 
12:25	67.4	67.4	67.4	95	65.9	0	2	270	0.00	29.713 
12:30	67.8	67.8	67.8	95	66.3	0	2	270	0.00	29.712 
12:35	68.1	68.1	68.1	95	66.6	0	2	270	0.00	29.712 
12:40	68.3	68.3	68.3	94	66.5	0	2	270	0.00	29.712 
12:45	68.4	68.4	68.4	94	66.6	0	3	270	0.00	29.714 
12:50	68.8	68.8	68.8	94	67.0	0	2	270	0.00	29.714 
12:55	69.1	69.1	69.1	94	67.3	0	3	270	0.00	29.714 
13:00	68.9	68.9	68.9	93	66.8	1	4	270	0.00	29.718 
13:05	69.3	69.3	69.3	94	67.5	0	3	270	0.00	29.718 
13:10	69.6	69.6	69.6	93	67.5	0	2	270	0.00	29.718 
13:15	70.1	70.1	70.1	93	68.0	0	2	270	0.00	29.714 
13:20	70.8	70.8	70.8	93	68.7	0	2	270	0.00	29.714 
13:25	71.1	71.1	71.1	91	68.3	1	4	22	0.00	29.714 
13:30	71.5	71.5	71.5	91	68.7	1	3	22	0.00	29.700 
13:35	72.1	72.1	72.1	90	69.0	0	3	292	0.00	29.700 
13:40	72.5	72.5	72.5	87	68.4	0	3	292	0.00	29.700 
13:45	72.8	72.8	72.8	85	68.0	1	3	292	0.00	29.700 
13:50	73.0	73.0	73.0	84	67.9	1	3	292	0.00	29.700 
13:55	73.3	73.3	73.3	83	67.8	0	3	292	0.00	29.700 
14:00	73.5	73.5	73.5	82	67.7	0	3	292	0.00	29.695 
14:05	73.5	73.5	73.5	80	66.9	1	4	292	0.00	29.695 
14:10	73.5	73.5	73.5	81	67.3	1	4	292	0.00	29.695 
14:15	74.2	74.2	74.2	80	67.6	1	3	292	0.00	29.693 
14:20	74.7	74.7	74.7	79	67.7	0	4	315	0.00	29.693 
14:25	74.7	74.7	74.7	77	67.0	1	4	292	0.00	29.693 
14:30	75.1	75.1	76.1	77	67.4	1	4	292	0.00	29.689 
14:35	75.6	75.6	76.9	75	67.1	0	3	292	0.00	29.689 
14:40	76.0	76.0	77.4	74	67.1	0	2	292	0.00	29.689 
14:45	76.3	76.3	77.8	73	67.0	0	3	292	0.00	29.677 
14:50	76.5	76.5	78.2	71	66.4	1	4	292	0.00	29.677 
14:55	76.7	76.7	78.4	71	66.6	2	5	292	0.00	29.677 
15:00	77.4	77.4	79.3	73	68.0	1	4	292	0.00	29.684 
15:05	77.6	77.6	79.5	69	66.6	2	5	315	0.00	29.684 
15:10	77.7	77.7	79.6	69	66.7	1	6	315	0.00	29.684 
15:15	77.7	77.7	79.6	67	65.8	1	5	292	0.00	29.678 
15:20	77.0	77.0	78.8	68	65.6	2	5	270	0.00	29.678 
15:25	76.7	76.7	78.4	69	65.7	1	4	270	0.00	29.678 
15:30	76.7	76.7	78.4	69	65.7	1	3	270	0.00	29.670 
15:35	76.8	76.8	78.5	70	66.3	0	3	270	0.00	29.670 
15:40	77.2	77.2	79.0	70	66.6	1	6	315	0.00	29.670 
15:45	77.4	77.4	79.2	66	65.1	2	4	292	0.00	29.668 
15:50	77.0	77.0	78.8	65	64.3	1	5	292	0.00	29.668 
15:55	76.8	76.8	78.6	65	64.1	2	6	270	0.00	29.668 
16:00	76.8	76.8	78.6	66	64.6	1	3	292	0.00	29.659 
16:05	76.7	76.7	78.5	65	64.0	2	6	292	0.00	29.659 
16:10	76.7	76.7	78.5	65	64.0	1	2	270	0.00	29.659 
16:15	76.7	76.7	78.5	66	64.5	0	3	292	0.00	29.654 
16:20	76.7	76.7	78.5	65	64.0	2	4	292	0.00	29.654 
16:25	76.7	76.7	78.5	66	64.5	1	3	292	0.00	29.654 
16:30	76.7	76.7	78.5	65	64.0	1	3	292	0.00	29.651 
16:35	76.8	76.8	78.6	66	64.6	1	3	292	0.00	29.651 
16:40	77.0	77.0	78.8	65	64.3	0	2	292	0.00	29.651 
16:45	77.6	77.6	79.4	64	64.4	1	3	292	0.00	29.636 
16:50	77.9	77.9	79.7	63	64.3	0	2	292	0.00	29.636 
16:55	78.1	78.1	79.9	62	64.0	1	3	292	0.00	29.636 
17:00	78.1	78.1	79.9	63	64.5	1	4	292	0.00	29.627 
17:05	77.9	77.9	79.6	61	63.3	1	3	292	0.00	29.627 
17:10	77.9	77.9	79.7	63	64.3	0	2	270	0.00	29.627 
17:15	78.1	78.1	79.9	63	64.5	1	2	270	0.00	29.621 
17:20	78.5	78.5	80.3	63	64.8	0	3	270	0.00	29.621 
17:25	78.6	78.6	80.4	62	64.5	1	3	270	0.00	29.621 
17:30	79.2	79.2	81.1	63	65.5	0	2	292	0.00	29.618 
17:35	79.2	79.2	81.0	61	64.6	1	5	292	0.00	29.618 
17:40	79.0	79.0	80.8	61	64.4	1	2	292	0.00	29.618 
17:45	78.6	78.6	80.4	62	64.5	0	2	292	0.00	29.606 
17:50	78.3	78.3	80.2	64	65.1	1	2	292	0.00	29.606 
17:55	78.1	78.1	79.9	64	64.9	0	2	292	0.00	29.606 
18:00	77.9	77.9	79.7	64	64.7	1	2	292	0.00	29.607 
18:05	77.9	77.9	79.7	64	64.7	0	3	292	0.00	29.607 
18:10	77.9	77.9	79.7	63	64.3	1	3	292	0.00	29.607 
18:15	77.7	77.7	79.5	63	64.1	1	3	292	0.00	29.623 
18:20	77.9	77.9	79.7	63	64.3	1	4	292	0.00	29.623 
18:25	77.9	77.9	79.7	63	64.3	1	5	292	0.00	29.623 
18:30	77.6	77.6	79.4	64	64.4	1	3	292	0.00	29.622 
18:35	77.6	77.6	79.4	65	64.9	1	2	292	0.00	29.622 
18:40	77.6	77.6	79.4	64	64.4	1	5	270	0.00	29.622 
18:45	77.7	77.7	79.4	62	63.6	1	3	270	0.00	29.620 
18:50	77.6	77.6	79.4	62	63.5	1	5	270	0.00	29.620 
18:55	77.6	77.6	79.4	62	63.5	1	3	270	0.00	29.620 
19:00	77.7	77.7	79.5	63	64.1	0	1	270	0.00	29.613 
19:05	77.9	77.9	79.6	62	63.8	1	3	270	0.00	29.613 
19:10	78.1	78.1	79.9	62	64.0	0	4	68	0.00	29.613 
19:15	77.9	77.9	79.7	63	64.3	0	1	68	0.00	29.619 
19:20	77.6	77.6	79.4	64	64.4	0	1	68	0.00	29.619 
19:25	77.4	77.4	79.2	65	64.7	0	1	68	0.00	29.619 
19:30	75.8	75.8	78.0	51	56.4	3	9	338	0.00	29.635 
19:35	72.3	72.3	72.3	50	52.6	6	12	338	0.00	29.635 
19:40	70.4	70.4	70.4	52	51.9	4	12	338	0.00	29.635 
19:45	69.6	69.6	69.6	53	51.7	4	11	338	0.00	29.660 
19:50	68.4	68.4	68.4	59	53.5	5	12	292	0.00	29.660 
19:55	65.3	65.3	65.3	71	55.6	4	11	292	0.09	29.660 
20:00	63.1	63.1	63.1	79	56.5	2	5	292	0.06	29.698 
20:05	61.8	61.8	61.8	84	56.9	2	5	292	0.07	29.698 
20:10	61.2	61.2	61.2	86	57.0	1	3	292	0.01	29.698 
20:15	60.7	60.7	60.7	88	57.1	1	3	292	0.00	29.701 
20:20	60.7	60.7	60.7	88	57.1	1	3	292	0.01	29.701 
20:25	60.5	60.5	60.5	89	57.2	0	2	292	0.00	29.701 
20:30	60.5	60.5	60.5	90	57.5	0	2	292	0.01	29.718 
20:35	60.4	60.4	60.4	90	57.4	1	4	292	0.00	29.718 
20:40	60.4	60.4	60.4	91	57.8	0	1	292	0.03	29.718 
20:45	60.2	60.2	60.2	91	57.6	0	1	292	0.02	29.707 
20:50	60.2	60.2	60.2	91	57.6	0	1	292	0.02	29.707 
20:55	60.2	60.2	60.2	92	57.9	0	2	292	0.02	29.707 
21:00	60.2	60.2	60.2	92	57.9	0	2	292	0.02	29.705 
21:05	60.2	60.2	60.2	92	57.9	0	2	292	0.03	29.705 
21:10	60.2	60.2	60.2	92	57.9	0	0	---	0.02	29.705 
21:15	60.2	60.2	60.2	93	58.2	0	0	---	0.02	29.705 
21:20	60.2	60.2	60.2	93	58.2	0	1	292	0.01	29.705 
21:25	60.2	60.2	60.2	93	58.2	0	0	---	0.02	29.705 
21:30	60.2	60.2	60.2	93	58.2	0	1	292	0.00	29.698 
21:35	60.2	60.2	60.2	93	58.2	0	1	292	0.01	29.698 
21:40	60.2	60.2	60.2	93	58.2	0	1	292	0.01	29.698 
21:45	60.2	60.2	60.2	94	58.5	0	1	292	0.01	29.691 
21:50	60.4	60.4	60.4	94	58.7	0	1	292	0.00	29.691 
21:55	60.4	60.4	60.4	94	58.7	0	1	292	0.01	29.691 
22:00	60.2	60.2	60.2	94	58.5	0	0	---	0.00	29.703 
22:05	60.4	60.4	60.4	94	58.7	0	1	292	0.00	29.703 
22:10	60.4	60.4	60.4	94	58.7	0	1	292	0.00	29.703 
22:15	60.2	60.2	60.2	94	58.5	0	1	292	0.01	29.698 
22:20	60.2	60.2	60.2	94	58.5	0	1	292	0.00	29.698 
22:25	60.2	60.2	60.2	94	58.5	0	1	292	0.00	29.698 
22:30	60.2	60.2	60.2	94	58.5	0	1	292	0.00	29.699 
22:35	60.2	60.2	60.2	94	58.5	0	0	---	0.00	29.699 
22:40	60.1	60.1	60.1	94	58.4	0	0	---	0.00	29.699 
22:45	60.1	60.1	60.1	94	58.4	0	0	---	0.00	29.716 
22:50	60.1	60.1	60.1	94	58.4	0	0	---	0.00	29.716 
22:55	60.1	60.1	60.1	94	58.4	0	0	---	0.00	29.716 
23:00	60.1	60.1	60.1	95	58.7	0	0	---	0.00	29.711 
23:05	60.1	60.1	60.1	95	58.7	0	0	---	0.00	29.711 
23:10	60.1	60.1	60.1	95	58.7	0	0	---	0.00	29.711 
23:15	60.1	60.1	60.1	95	58.7	0	0	---	0.00	29.714 
23:20	60.1	60.1	60.1	95	58.7	0	1	292	0.00	29.714 
23:25	60.1	60.1	60.1	95	58.7	0	0	---	0.00	29.714 
23:30	60.1	60.1	60.1	95	58.7	0	1	292	0.00	29.715 
23:35	60.1	60.1	60.1	95	58.7	0	0	---	0.00	29.715 
23:40	60.1	60.1	60.1	95	58.7	0	0	---	0.00	29.715 
23:45	60.1	60.1	60.1	95	58.7	0	0	---	0.00	29.714 
23:50	60.1	60.1	60.1	95	58.7	0	1	292	0.00	29.714 
23:55	60.1	60.1	60.1	95	58.7	0	0	---	0.00	29.714 

CoCoRaHS
IN-AL-39
A2 Web Hosting
Creative Commons License
GoDaddy
search engine by freefind advanced

loaded 2018-11-20 14:22:33 • last modified 2010-11-18 10:43:29
Privacy PolicyDisclaimer
• wx.awcolley.com is powered by PmWiki v.2002016 •
• all content (unless otherwise noted) © 2018 A W Colley